sensor_id;sensor_type;location;lat;lon;timestamp;temperature;humidity
10070;DHT22;5074;53.720;10.014;2022-08-04T00:00:38;21.30;99.90
10070;DHT22;5074;53.720;10.014;2022-08-04T00:03:12;21.20;99.90
10070;DHT22;5074;53.720;10.014;2022-08-04T00:05:51;21.10;99.90
10070;DHT22;5074;53.720;10.014;2022-08-04T00:08:32;21.10;99.90
10070;DHT22;5074;53.720;10.014;2022-08-04T00:11:10;21.10;99.90
10070;DHT22;5074;53.720;10.014;2022-08-04T00:13:42;21.10;99.90
10070;DHT22;5074;53.720;10.014;2022-08-04T00:16:29;21.10;99.90
10070;DHT22;5074;53.720;10.014;2022-08-04T00:19:04;21.00;99.90
10070;DHT22;5074;53.720;10.014;2022-08-04T00:21:37;20.90;99.90
10070;DHT22;5074;53.720;10.014;2022-08-04T00:24:08;20.80;99.90
10070;DHT22;5074;53.720;10.014;2022-08-04T00:26:40;20.70;99.90
10070;DHT22;5074;53.720;10.014;2022-08-04T00:29:10;20.70;99.90
10070;DHT22;5074;53.720;10.014;2022-08-04T00:31:39;20.70;99.90
10070;DHT22;5074;53.720;10.014;2022-08-04T00:34:23;20.70;99.90
10070;DHT22;5074;53.720;10.014;2022-08-04T00:36:52;20.70;99.90
10070;DHT22;5074;53.720;10.014;2022-08-04T00:39:21;20.70;99.90
10070;DHT22;5074;53.720;10.014;2022-08-04T00:41:56;20.70;99.90
10070;DHT22;5074;53.720;10.014;2022-08-04T00:44:43;20.60;99.90
10070;DHT22;5074;53.720;10.014;2022-08-04T00:47:29;20.60;99.90
10070;DHT22;5074;53.720;10.014;2022-08-04T00:50:09;20.60;99.90
10070;DHT22;5074;53.720;10.014;2022-08-04T00:52:42;20.60;99.90
10070;DHT22;5074;53.720;10.014;2022-08-04T00:55:23;20.60;99.90
10070;DHT22;5074;53.720;10.014;2022-08-04T00:58:14;20.60;99.90
10070;DHT22;5074;53.720;10.014;2022-08-04T01:00:52;20.50;99.90
10070;DHT22;5074;53.720;10.014;2022-08-04T01:03:33;20.50;99.90
10070;DHT22;5074;53.720;10.014;2022-08-04T01:06:19;20.50;99.90
10070;DHT22;5074;53.720;10.014;2022-08-04T01:08:59;20.40;99.90
10070;DHT22;5074;53.720;10.014;2022-08-04T01:11:54;20.40;99.90
10070;DHT22;5074;53.720;10.014;2022-08-04T01:14:40;20.40;99.90
10070;DHT22;5074;53.720;10.014;2022-08-04T01:17:18;20.40;99.90
10070;DHT22;5074;53.720;10.014;2022-08-04T01:20:00;20.40;99.90
10070;DHT22;5074;53.720;10.014;2022-08-04T01:22:39;20.30;99.90
10070;DHT22;5074;53.720;10.014;2022-08-04T01:25:35;20.30;99.90
10070;DHT22;5074;53.720;10.014;2022-08-04T01:28:27;20.30;99.90
10070;DHT22;5074;53.720;10.014;2022-08-04T01:31:00;20.20;99.90
10070;DHT22;5074;53.720;10.014;2022-08-04T01:33:38;20.10;99.90
10070;DHT22;5074;53.720;10.014;2022-08-04T01:36:29;20.10;99.90
10070;DHT22;5074;53.720;10.014;2022-08-04T01:39:01;20.10;99.90
10070;DHT22;5074;53.720;10.014;2022-08-04T01:41:51;20.00;99.90
10070;DHT22;5074;53.720;10.014;2022-08-04T01:44:24;20.00;99.90
10070;DHT22;5074;53.720;10.014;2022-08-04T01:46:56;20.00;99.90
10070;DHT22;5074;53.720;10.014;2022-08-04T01:49:26;19.90;99.90
10070;DHT22;5074;53.720;10.014;2022-08-04T01:52:07;19.90;99.90
10070;DHT22;5074;53.720;10.014;2022-08-04T01:54:37;19.90;99.90
10070;DHT22;5074;53.720;10.014;2022-08-04T01:57:08;19.90;99.90
10070;DHT22;5074;53.720;10.014;2022-08-04T01:59:57;19.90;99.90
10070;DHT22;5074;53.720;10.014;2022-08-04T02:02:28;19.90;99.90
10070;DHT22;5074;53.720;10.014;2022-08-04T02:04:56;19.90;99.90
10070;DHT22;5074;53.720;10.014;2022-08-04T02:07:27;19.80;99.90
10070;DHT22;5074;53.720;10.014;2022-08-04T02:10:06;19.70;99.90
10070;DHT22;5074;53.720;10.014;2022-08-04T02:12:45;19.70;99.90
10070;DHT22;5074;53.720;10.014;2022-08-04T02:15:23;19.60;99.90
10070;DHT22;5074;53.720;10.014;2022-08-04T02:17:58;19.70;99.90
10070;DHT22;5074;53.720;10.014;2022-08-04T02:20:31;19.70;99.90
10070;DHT22;5074;53.720;10.014;2022-08-04T02:23:02;19.70;99.90
10070;DHT22;5074;53.720;10.014;2022-08-04T02:25:33;19.60;99.90
10070;DHT22;5074;53.720;10.014;2022-08-04T02:28:15;19.50;99.90
10070;DHT22;5074;53.720;10.014;2022-08-04T02:30:51;19.50;99.90
10070;DHT22;5074;53.720;10.014;2022-08-04T02:33:33;19.50;99.90
10070;DHT22;5074;53.720;10.014;2022-08-04T02:36:04;19.40;99.90
10070;DHT22;5074;53.720;10.014;2022-08-04T02:38:40;19.40;99.90
10070;DHT22;5074;53.720;10.014;2022-08-04T02:41:18;19.40;99.90
10070;DHT22;5074;53.720;10.014;2022-08-04T02:43:48;19.50;99.90
10070;DHT22;5074;53.720;10.014;2022-08-04T02:46:19;19.50;99.90
10070;DHT22;5074;53.720;10.014;2022-08-04T02:48:49;19.50;99.90
10070;DHT22;5074;53.720;10.014;2022-08-04T02:51:21;19.50;99.90
10070;DHT22;5074;53.720;10.014;2022-08-04T02:53:52;19.40;99.90
10070;DHT22;5074;53.720;10.014;2022-08-04T02:56:22;19.30;99.90
10070;DHT22;5074;53.720;10.014;2022-08-04T02:58:52;19.30;99.90
10070;DHT22;5074;53.720;10.014;2022-08-04T03:01:24;19.30;99.90
10070;DHT22;5074;53.720;10.014;2022-08-04T03:04:00;19.20;99.90
10070;DHT22;5074;53.720;10.014;2022-08-04T03:10:05;19.20;99.90
10070;DHT22;5074;53.720;10.014;2022-08-04T03:12:56;19.20;99.90
10070;DHT22;5074;53.720;10.014;2022-08-04T03:15:53;19.10;99.90
10070;DHT22;5074;53.720;10.014;2022-08-04T03:18:42;19.00;99.90
10070;DHT22;5074;53.720;10.014;2022-08-04T03:21:55;19.00;99.90
10070;DHT22;5074;53.720;10.014;2022-08-04T03:27:59;18.80;99.90
10070;DHT22;5074;53.720;10.014;2022-08-04T03:30:57;18.80;99.90
10070;DHT22;5074;53.720;10.014;2022-08-04T03:33:52;18.90;99.90
10070;DHT22;5074;53.720;10.014;2022-08-04T03:36:37;18.90;99.90
10070;DHT22;5074;53.720;10.014;2022-08-04T03:39:44;18.90;99.90
10070;DHT22;5074;53.720;10.014;2022-08-04T03:46:13;18.80;99.90
10070;DHT22;5074;53.720;10.014;2022-08-04T03:52:39;18.80;99.90
10070;DHT22;5074;53.720;10.014;2022-08-04T03:55:48;18.80;99.90
10070;DHT22;5074;53.720;10.014;2022-08-04T03:58:58;18.90;99.90
10070;DHT22;5074;53.720;10.014;2022-08-04T04:04:59;19.00;99.90
10070;DHT22;5074;53.720;10.014;2022-08-04T04:17:21;19.10;99.90
10070;DHT22;5074;53.720;10.014;2022-08-04T04:20:18;19.20;99.90
10070;DHT22;5074;53.720;10.014;2022-08-04T04:23:06;19.20;99.90
10070;DHT22;5074;53.720;10.014;2022-08-04T04:25:46;19.30;99.90
10070;DHT22;5074;53.720;10.014;2022-08-04T04:28:29;19.30;99.90
10070;DHT22;5074;53.720;10.014;2022-08-04T04:31:26;19.40;99.90
10070;DHT22;5074;53.720;10.014;2022-08-04T04:34:14;19.40;99.90
10070;DHT22;5074;53.720;10.014;2022-08-04T04:36:57;19.50;99.90
10070;DHT22;5074;53.720;10.014;2022-08-04T04:39:37;19.50;99.90
10070;DHT22;5074;53.720;10.014;2022-08-04T04:42:24;19.60;99.90
10070;DHT22;5074;53.720;10.014;2022-08-04T04:45:23;19.60;99.90
10070;DHT22;5074;53.720;10.014;2022-08-04T04:48:03;19.70;99.90
10070;DHT22;5074;53.720;10.014;2022-08-04T04:50:39;19.80;99.90
10070;DHT22;5074;53.720;10.014;2022-08-04T04:53:22;19.80;99.90
10070;DHT22;5074;53.720;10.014;2022-08-04T04:55:55;19.90;99.90
10070;DHT22;5074;53.720;10.014;2022-08-04T04:58:31;19.90;99.90
10070;DHT22;5074;53.720;10.014;2022-08-04T05:01:20;20.00;99.90
10070;DHT22;5074;53.720;10.014;2022-08-04T05:04:17;20.00;99.90
10070;DHT22;5074;53.720;10.014;2022-08-04T05:10:21;20.20;99.90
10070;DHT22;5074;53.720;10.014;2022-08-04T05:13:13;20.30;99.90
10070;DHT22;5074;53.720;10.014;2022-08-04T05:16:16;20.30;99.90
10070;DHT22;5074;53.720;10.014;2022-08-04T05:18:53;20.40;99.90
10070;DHT22;5074;53.720;10.014;2022-08-04T05:21:37;20.40;99.90
10070;DHT22;5074;53.720;10.014;2022-08-04T05:24:09;20.50;99.90
10070;DHT22;5074;53.720;10.014;2022-08-04T05:26:43;20.60;99.90
10070;DHT22;5074;53.720;10.014;2022-08-04T05:29:15;20.60;99.90
10070;DHT22;5074;53.720;10.014;2022-08-04T05:31:58;20.70;99.90
10070;DHT22;5074;53.720;10.014;2022-08-04T05:34:29;20.80;99.90
10070;DHT22;5074;53.720;10.014;2022-08-04T05:37:08;20.90;99.90
10070;DHT22;5074;53.720;10.014;2022-08-04T05:39:38;21.00;99.90
10070;DHT22;5074;53.720;10.014;2022-08-04T05:42:12;21.10;99.90
10070;DHT22;5074;53.720;10.014;2022-08-04T05:44:41;21.20;99.90
10070;DHT22;5074;53.720;10.014;2022-08-04T05:47:18;21.30;99.90
10070;DHT22;5074;53.720;10.014;2022-08-04T05:49:55;21.40;99.90
10070;DHT22;5074;53.720;10.014;2022-08-04T05:52:29;21.60;99.90
10070;DHT22;5074;53.720;10.014;2022-08-04T05:54:58;21.70;99.90
10070;DHT22;5074;53.720;10.014;2022-08-04T05:57:28;21.70;99.90
10070;DHT22;5074;53.720;10.014;2022-08-04T05:59:58;21.90;99.90
10070;DHT22;5074;53.720;10.014;2022-08-04T06:02:51;21.90;99.90
10070;DHT22;5074;53.720;10.014;2022-08-04T06:05:20;22.10;99.90
10070;DHT22;5074;53.720;10.014;2022-08-04T06:07:50;22.20;99.90
10070;DHT22;5074;53.720;10.014;2022-08-04T06:10:39;22.20;99.90
10070;DHT22;5074;53.720;10.014;2022-08-04T06:13:10;22.30;99.90
10070;DHT22;5074;53.720;10.014;2022-08-04T06:16:00;22.30;99.90
10070;DHT22;5074;53.720;10.014;2022-08-04T06:18:29;22.30;99.90
10070;DHT22;5074;53.720;10.014;2022-08-04T06:21:21;22.40;99.90
10070;DHT22;5074;53.720;10.014;2022-08-04T06:23:53;22.40;99.90
10070;DHT22;5074;53.720;10.014;2022-08-04T06:26:28;22.40;99.90
10070;DHT22;5074;53.720;10.014;2022-08-04T06:28:59;22.40;99.90
10070;DHT22;5074;53.720;10.014;2022-08-04T06:31:28;22.50;99.90
10070;DHT22;5074;53.720;10.014;2022-08-04T06:34:31;22.60;99.90
10070;DHT22;5074;53.720;10.014;2022-08-04T06:37:01;22.70;99.90
10070;DHT22;5074;53.720;10.014;2022-08-04T06:39:32;22.80;99.90
10070;DHT22;5074;53.720;10.014;2022-08-04T06:42:03;22.80;99.90
10070;DHT22;5074;53.720;10.014;2022-08-04T06:44:49;22.90;99.90
10070;DHT22;5074;53.720;10.014;2022-08-04T06:47:18;23.00;99.90
10070;DHT22;5074;53.720;10.014;2022-08-04T06:49:50;23.10;99.90
10070;DHT22;5074;53.720;10.014;2022-08-04T06:52:39;23.10;99.90
10070;DHT22;5074;53.720;10.014;2022-08-04T06:55:09;23.30;99.90
10070;DHT22;5074;53.720;10.014;2022-08-04T06:57:39;23.30;99.90
10070;DHT22;5074;53.720;10.014;2022-08-04T07:00:09;23.40;99.90
10070;DHT22;5074;53.720;10.014;2022-08-04T07:02:40;23.40;99.90
10070;DHT22;5074;53.720;10.014;2022-08-04T07:05:11;23.40;99.90
10070;DHT22;5074;53.720;10.014;2022-08-04T07:07:40;23.60;99.90
10070;DHT22;5074;53.720;10.014;2022-08-04T07:10:25;23.70;99.90
10070;DHT22;5074;53.720;10.014;2022-08-04T07:12:54;23.70;99.90
10070;DHT22;5074;53.720;10.014;2022-08-04T07:15:23;23.80;99.90
10070;DHT22;5074;53.720;10.014;2022-08-04T07:17:53;23.80;99.90
10070;DHT22;5074;53.720;10.014;2022-08-04T07:20:26;23.90;99.90
10070;DHT22;5074;53.720;10.014;2022-08-04T07:23:01;24.00;99.90
10070;DHT22;5074;53.720;10.014;2022-08-04T07:25:32;24.10;99.90
10070;DHT22;5074;53.720;10.014;2022-08-04T07:28:22;24.10;99.90
10070;DHT22;5074;53.720;10.014;2022-08-04T07:30:52;24.40;99.90
10070;DHT22;5074;53.720;10.014;2022-08-04T07:33:21;24.50;99.90
10070;DHT22;5074;53.720;10.014;2022-08-04T07:35:51;24.50;99.90
10070;DHT22;5074;53.720;10.014;2022-08-04T07:38:36;24.50;99.90
10070;DHT22;5074;53.720;10.014;2022-08-04T07:41:18;24.60;99.90
10070;DHT22;5074;53.720;10.014;2022-08-04T07:44:04;24.50;99.90
10070;DHT22;5074;53.720;10.014;2022-08-04T07:46:33;24.60;99.90
10070;DHT22;5074;53.720;10.014;2022-08-04T07:49:02;24.70;99.90
10070;DHT22;5074;53.720;10.014;2022-08-04T07:51:31;24.80;99.90
10070;DHT22;5074;53.720;10.014;2022-08-04T07:54:01;25.00;99.90
10070;DHT22;5074;53.720;10.014;2022-08-04T07:56:32;25.20;99.90
10070;DHT22;5074;53.720;10.014;2022-08-04T07:59:03;25.20;99.90
10070;DHT22;5074;53.720;10.014;2022-08-04T08:01:31;25.40;99.90
10070;DHT22;5074;53.720;10.014;2022-08-04T08:04:01;25.50;99.90
10070;DHT22;5074;53.720;10.014;2022-08-04T08:06:34;25.70;99.90
10070;DHT22;5074;53.720;10.014;2022-08-04T08:09:09;25.90;99.90
10070;DHT22;5074;53.720;10.014;2022-08-04T08:11:42;26.20;99.90
10070;DHT22;5074;53.720;10.014;2022-08-04T08:14:32;26.60;99.90
10070;DHT22;5074;53.720;10.014;2022-08-04T08:17:01;27.00;99.90
10070;DHT22;5074;53.720;10.014;2022-08-04T08:19:30;27.30;99.90
10070;DHT22;5074;53.720;10.014;2022-08-04T08:22:00;27.50;99.90
10070;DHT22;5074;53.720;10.014;2022-08-04T08:24:30;27.50;99.90
10070;DHT22;5074;53.720;10.014;2022-08-04T08:27:03;27.60;99.90
10070;DHT22;5074;53.720;10.014;2022-08-04T08:29:32;27.70;99.90
10070;DHT22;5074;53.720;10.014;2022-08-04T08:32:01;27.70;99.90
10070;DHT22;5074;53.720;10.014;2022-08-04T08:34:34;27.90;99.90
10070;DHT22;5074;53.720;10.014;2022-08-04T08:37:08;27.90;99.90
10070;DHT22;5074;53.720;10.014;2022-08-04T08:39:44;28.00;99.90
10070;DHT22;5074;53.720;10.014;2022-08-04T08:42:28;28.10;99.90
10070;DHT22;5074;53.720;10.014;2022-08-04T08:45:11;28.10;99.90
10070;DHT22;5074;53.720;10.014;2022-08-04T08:48:05;28.10;99.90
10070;DHT22;5074;53.720;10.014;2022-08-04T08:50:51;28.10;99.90
10070;DHT22;5074;53.720;10.014;2022-08-04T08:53:32;28.20;99.90
10070;DHT22;5074;53.720;10.014;2022-08-04T08:56:13;28.20;99.90
10070;DHT22;5074;53.720;10.014;2022-08-04T08:59:04;28.20;99.90
10070;DHT22;5074;53.720;10.014;2022-08-04T09:01:48;28.20;99.90
10070;DHT22;5074;53.720;10.014;2022-08-04T09:04:43;28.30;99.90
10070;DHT22;5074;53.720;10.014;2022-08-04T09:07:36;28.40;99.90
10070;DHT22;5074;53.720;10.014;2022-08-04T09:10:16;28.60;99.90
10070;DHT22;5074;53.720;10.014;2022-08-04T09:12:49;28.50;99.90
10070;DHT22;5074;53.720;10.014;2022-08-04T09:15:23;28.60;99.90
10070;DHT22;5074;53.720;10.014;2022-08-04T09:18:01;28.80;99.90
10070;DHT22;5074;53.720;10.014;2022-08-04T09:20:33;29.00;99.90
10070;DHT22;5074;53.720;10.014;2022-08-04T09:23:16;29.00;99.90
10070;DHT22;5074;53.720;10.014;2022-08-04T09:25:53;29.10;99.90
10070;DHT22;5074;53.720;10.014;2022-08-04T09:28:28;29.10;99.90
10070;DHT22;5074;53.720;10.014;2022-08-04T09:31:21;29.20;99.90
10070;DHT22;5074;53.720;10.014;2022-08-04T09:34:18;29.10;99.90
10070;DHT22;5074;53.720;10.014;2022-08-04T09:36:52;29.20;99.90
10070;DHT22;5074;53.720;10.014;2022-08-04T09:39:32;29.20;99.90
10070;DHT22;5074;53.720;10.014;2022-08-04T09:42:11;29.20;99.90
10070;DHT22;5074;53.720;10.014;2022-08-04T09:44:51;29.50;99.90
10070;DHT22;5074;53.720;10.014;2022-08-04T09:47:36;29.60;99.90
10070;DHT22;5074;53.720;10.014;2022-08-04T09:50:14;29.80;99.90
10070;DHT22;5074;53.720;10.014;2022-08-04T09:52:55;29.90;99.90
10070;DHT22;5074;53.720;10.014;2022-08-04T09:55:30;29.90;99.90
10070;DHT22;5074;53.720;10.014;2022-08-04T09:58:26;30.00;99.90
10070;DHT22;5074;53.720;10.014;2022-08-04T10:01:12;30.20;99.90
10070;DHT22;5074;53.720;10.014;2022-08-04T10:03:50;30.30;99.90
10070;DHT22;5074;53.720;10.014;2022-08-04T10:06:31;30.40;99.90
10070;DHT22;5074;53.720;10.014;2022-08-04T10:09:12;30.50;99.10
10070;DHT22;5074;53.720;10.014;2022-08-04T10:11:59;30.60;98.90
10070;DHT22;5074;53.720;10.014;2022-08-04T10:14:39;30.60;98.50
10070;DHT22;5074;53.720;10.014;2022-08-04T10:17:21;30.80;98.60
10070;DHT22;5074;53.720;10.014;2022-08-04T10:20:03;30.80;98.30
10070;DHT22;5074;53.720;10.014;2022-08-04T10:22:40;30.80;98.90
10070;DHT22;5074;53.720;10.014;2022-08-04T10:25:37;30.90;98.10
10070;DHT22;5074;53.720;10.014;2022-08-04T10:28:34;31.10;97.60
10070;DHT22;5074;53.720;10.014;2022-08-04T10:31:08;31.20;97.60
10070;DHT22;5074;53.720;10.014;2022-08-04T10:33:40;31.20;95.50
10070;DHT22;5074;53.720;10.014;2022-08-04T10:36:14;31.20;95.70
10070;DHT22;5074;53.720;10.014;2022-08-04T10:41:39;31.30;95.30
10070;DHT22;5074;53.720;10.014;2022-08-04T10:44:16;31.40;95.80
10070;DHT22;5074;53.720;10.014;2022-08-04T10:46:59;31.40;96.40
10070;DHT22;5074;53.720;10.014;2022-08-04T10:49:33;31.30;96.00
10070;DHT22;5074;53.720;10.014;2022-08-04T10:52:06;31.30;95.90
10070;DHT22;5074;53.720;10.014;2022-08-04T10:54:38;31.20;96.30
10070;DHT22;5074;53.720;10.014;2022-08-04T10:57:14;31.30;96.30
10070;DHT22;5074;53.720;10.014;2022-08-04T10:59:49;31.40;96.30
10070;DHT22;5074;53.720;10.014;2022-08-04T11:02:32;31.60;96.80
10070;DHT22;5074;53.720;10.014;2022-08-04T11:05:09;31.70;96.30
10070;DHT22;5074;53.720;10.014;2022-08-04T11:07:42;31.70;96.70
10070;DHT22;5074;53.720;10.014;2022-08-04T11:10:14;31.90;96.70
10070;DHT22;5074;53.720;10.014;2022-08-04T11:12:46;31.90;96.40
10070;DHT22;5074;53.720;10.014;2022-08-04T11:15:17;32.10;96.80
10070;DHT22;5074;53.720;10.014;2022-08-04T11:17:52;32.20;96.70
10070;DHT22;5074;53.720;10.014;2022-08-04T11:20:26;32.40;96.30
10070;DHT22;5074;53.720;10.014;2022-08-04T11:23:05;32.50;95.40
10070;DHT22;5074;53.720;10.014;2022-08-04T11:25:39;32.60;95.70
10070;DHT22;5074;53.720;10.014;2022-08-04T11:28:23;32.80;94.70
10070;DHT22;5074;53.720;10.014;2022-08-04T11:31:02;33.10;93.60
10070;DHT22;5074;53.720;10.014;2022-08-04T11:33:34;33.30;93.70
10070;DHT22;5074;53.720;10.014;2022-08-04T11:36:09;33.30;94.00
10070;DHT22;5074;53.720;10.014;2022-08-04T11:38:48;33.20;93.30
10070;DHT22;5074;53.720;10.014;2022-08-04T11:41:25;33.10;93.30
10070;DHT22;5074;53.720;10.014;2022-08-04T11:44:04;33.30;93.00
10070;DHT22;5074;53.720;10.014;2022-08-04T11:46:39;33.20;92.90
10070;DHT22;5074;53.720;10.014;2022-08-04T11:49:11;33.10;92.50
10070;DHT22;5074;53.720;10.014;2022-08-04T11:51:48;33.20;93.30
10070;DHT22;5074;53.720;10.014;2022-08-04T11:54:19;33.40;91.90
10070;DHT22;5074;53.720;10.014;2022-08-04T11:56:48;33.30;91.80
10070;DHT22;5074;53.720;10.014;2022-08-04T11:59:17;33.40;92.00
10070;DHT22;5074;53.720;10.014;2022-08-04T12:01:49;33.60;92.20
10070;DHT22;5074;53.720;10.014;2022-08-04T12:04:34;33.70;91.60
10070;DHT22;5074;53.720;10.014;2022-08-04T12:07:11;33.60;91.80
10070;DHT22;5074;53.720;10.014;2022-08-04T12:10:10;33.50;90.90
10070;DHT22;5074;53.720;10.014;2022-08-04T12:13:09;33.50;90.70
10070;DHT22;5074;53.720;10.014;2022-08-04T12:15:49;33.50;90.20
10070;DHT22;5074;53.720;10.014;2022-08-04T12:18:26;33.60;89.90
10070;DHT22;5074;53.720;10.014;2022-08-04T12:21:03;33.60;88.80
10070;DHT22;5074;53.720;10.014;2022-08-04T12:23:37;33.30;89.70
10070;DHT22;5074;53.720;10.014;2022-08-04T12:26:09;33.20;90.10
10070;DHT22;5074;53.720;10.014;2022-08-04T12:28:44;33.30;89.70
10070;DHT22;5074;53.720;10.014;2022-08-04T12:31:36;33.60;89.90
10070;DHT22;5074;53.720;10.014;2022-08-04T12:34:12;33.90;90.40
10070;DHT22;5074;53.720;10.014;2022-08-04T12:36:44;34.20;88.20
10070;DHT22;5074;53.720;10.014;2022-08-04T12:39:21;34.50;86.60
10070;DHT22;5074;53.720;10.014;2022-08-04T12:41:54;34.80;84.50
10070;DHT22;5074;53.720;10.014;2022-08-04T12:44:30;34.50;83.70
10070;DHT22;5074;53.720;10.014;2022-08-04T12:47:04;34.40;83.40
10070;DHT22;5074;53.720;10.014;2022-08-04T12:49:55;34.40;83.40
10070;DHT22;5074;53.720;10.014;2022-08-04T12:52:29;34.50;84.40
10070;DHT22;5074;53.720;10.014;2022-08-04T12:55:24;35.60;82.70
10070;DHT22;5074;53.720;10.014;2022-08-04T12:57:56;37.20;79.80
10070;DHT22;5074;53.720;10.014;2022-08-04T13:00:27;38.50;77.00
10070;DHT22;5074;53.720;10.014;2022-08-04T13:03:08;39.20;74.20
10070;DHT22;5074;53.720;10.014;2022-08-04T13:05:39;39.50;73.40
10070;DHT22;5074;53.720;10.014;2022-08-04T13:08:08;40.10;72.30
10070;DHT22;5074;53.720;10.014;2022-08-04T13:10:38;40.60;71.30
10070;DHT22;5074;53.720;10.014;2022-08-04T13:13:14;41.00;70.40
10070;DHT22;5074;53.720;10.014;2022-08-04T13:15:53;40.90;68.90
10070;DHT22;5074;53.720;10.014;2022-08-04T13:18:23;41.30;69.20
10070;DHT22;5074;53.720;10.014;2022-08-04T13:21:08;41.00;68.30
10070;DHT22;5074;53.720;10.014;2022-08-04T13:23:48;41.50;66.90
10070;DHT22;5074;53.720;10.014;2022-08-04T13:26:45;41.70;67.70
10070;DHT22;5074;53.720;10.014;2022-08-04T13:29:23;41.00;65.90
10070;DHT22;5074;53.720;10.014;2022-08-04T13:32:17;40.50;66.60
10070;DHT22;5074;53.720;10.014;2022-08-04T13:34:48;41.30;66.20
10070;DHT22;5074;53.720;10.014;2022-08-04T13:37:19;41.90;65.80
10070;DHT22;5074;53.720;10.014;2022-08-04T13:39:52;41.90;64.70
10070;DHT22;5074;53.720;10.014;2022-08-04T13:42:23;41.70;65.00
10070;DHT22;5074;53.720;10.014;2022-08-04T13:44:55;42.20;64.50
10070;DHT22;5074;53.720;10.014;2022-08-04T13:47:26;42.50;65.30
10070;DHT22;5074;53.720;10.014;2022-08-04T13:50:15;42.30;63.40
10070;DHT22;5074;53.720;10.014;2022-08-04T13:52:46;41.60;63.70
10070;DHT22;5074;53.720;10.014;2022-08-04T13:55:21;41.70;64.00
10070;DHT22;5074;53.720;10.014;2022-08-04T13:57:53;40.90;64.20
10070;DHT22;5074;53.720;10.014;2022-08-04T14:00:25;39.90;65.40
10070;DHT22;5074;53.720;10.014;2022-08-04T14:03:07;40.20;66.10
10070;DHT22;5074;53.720;10.014;2022-08-04T14:06:09;40.30;64.10
10070;DHT22;5074;53.720;10.014;2022-08-04T14:08:42;40.80;64.70
10070;DHT22;5074;53.720;10.014;2022-08-04T14:11:13;40.50;64.60
10070;DHT22;5074;53.720;10.014;2022-08-04T14:14:11;41.10;65.60
10070;DHT22;5074;53.720;10.014;2022-08-04T14:16:54;41.50;64.20
10070;DHT22;5074;53.720;10.014;2022-08-04T14:19:28;40.60;63.80
10070;DHT22;5074;53.720;10.014;2022-08-04T14:22:26;39.00;64.80
10070;DHT22;5074;53.720;10.014;2022-08-04T14:24:56;38.20;66.60
10070;DHT22;5074;53.720;10.014;2022-08-04T14:27:27;38.90;66.70
10070;DHT22;5074;53.720;10.014;2022-08-04T14:29:55;40.00;65.70
10070;DHT22;5074;53.720;10.014;2022-08-04T14:32:25;39.60;67.00
10070;DHT22;5074;53.720;10.014;2022-08-04T14:34:54;37.70;75.40
10070;DHT22;5074;53.720;10.014;2022-08-04T14:37:22;37.20;76.20
10070;DHT22;5074;53.720;10.014;2022-08-04T14:39:51;36.30;78.00
10070;DHT22;5074;53.720;10.014;2022-08-04T14:42:41;35.10;80.20
10070;DHT22;5074;53.720;10.014;2022-08-04T14:45:28;33.70;83.50
10070;DHT22;5074;53.720;10.014;2022-08-04T14:47:59;33.20;85.10
10070;DHT22;5074;53.720;10.014;2022-08-04T14:50:32;33.10;87.80
10070;DHT22;5074;53.720;10.014;2022-08-04T14:53:03;33.30;87.90
10070;DHT22;5074;53.720;10.014;2022-08-04T14:55:33;32.90;88.10
10070;DHT22;5074;53.720;10.014;2022-08-04T14:58:02;32.30;89.50
10070;DHT22;5074;53.720;10.014;2022-08-04T15:00:51;31.50;90.90
10070;DHT22;5074;53.720;10.014;2022-08-04T15:03:23;31.00;91.60
10070;DHT22;5074;53.720;10.014;2022-08-04T15:05:52;30.70;92.80
10070;DHT22;5074;53.720;10.014;2022-08-04T15:08:33;30.40;94.00
10070;DHT22;5074;53.720;10.014;2022-08-04T15:11:03;30.10;95.10
10070;DHT22;5074;53.720;10.014;2022-08-04T15:13:32;30.00;96.00
10070;DHT22;5074;53.720;10.014;2022-08-04T15:16:00;29.70;96.90
10070;DHT22;5074;53.720;10.014;2022-08-04T15:18:38;29.60;97.10
10070;DHT22;5074;53.720;10.014;2022-08-04T15:21:07;29.40;97.40
10070;DHT22;5074;53.720;10.014;2022-08-04T15:23:37;29.20;97.70
10070;DHT22;5074;53.720;10.014;2022-08-04T15:26:07;29.10;98.20
10070;DHT22;5074;53.720;10.014;2022-08-04T15:28:40;29.00;98.30
10070;DHT22;5074;53.720;10.014;2022-08-04T15:31:11;28.90;98.10
10070;DHT22;5074;53.720;10.014;2022-08-04T15:34:02;28.60;97.40
10070;DHT22;5074;53.720;10.014;2022-08-04T15:36:33;28.40;97.80
10070;DHT22;5074;53.720;10.014;2022-08-04T15:39:09;28.30;98.40
10070;DHT22;5074;53.720;10.014;2022-08-04T15:41:46;28.20;98.00
10070;DHT22;5074;53.720;10.014;2022-08-04T15:47:30;27.70;98.00
10070;DHT22;5074;53.720;10.014;2022-08-04T15:50:04;27.60;98.70
10070;DHT22;5074;53.720;10.014;2022-08-04T15:55:39;27.30;99.30
10070;DHT22;5074;53.720;10.014;2022-08-04T15:58:09;27.10;99.30
10070;DHT22;5074;53.720;10.014;2022-08-04T16:03:42;26.60;98.40
10070;DHT22;5074;53.720;10.014;2022-08-04T16:06:42;26.20;98.60
10070;DHT22;5074;53.720;10.014;2022-08-04T16:09:22;25.80;99.90
10070;DHT22;5074;53.720;10.014;2022-08-04T16:12:16;25.10;99.90
10070;DHT22;5074;53.720;10.014;2022-08-04T16:15:35;24.20;99.90
10070;DHT22;5074;53.720;10.014;2022-08-04T16:18:04;23.60;99.90
10070;DHT22;5074;53.720;10.014;2022-08-04T16:20:52;23.10;99.90
10070;DHT22;5074;53.720;10.014;2022-08-04T16:32:11;21.90;99.90
10070;DHT22;5074;53.720;10.014;2022-08-04T16:34:45;21.70;99.90
10070;DHT22;5074;53.720;10.014;2022-08-04T16:37:22;21.60;99.90
10070;DHT22;5074;53.720;10.014;2022-08-04T16:43:02;21.80;99.90
10070;DHT22;5074;53.720;10.014;2022-08-04T16:45:39;22.00;99.90
10070;DHT22;5074;53.720;10.014;2022-08-04T16:48:09;22.00;99.90
10070;DHT22;5074;53.720;10.014;2022-08-04T16:50:48;22.00;99.90
10070;DHT22;5074;53.720;10.014;2022-08-04T16:53:18;21.80;99.90
10070;DHT22;5074;53.720;10.014;2022-08-04T16:56:09;21.90;99.90
10070;DHT22;5074;53.720;10.014;2022-08-04T16:58:39;22.00;99.90
10070;DHT22;5074;53.720;10.014;2022-08-04T17:01:20;22.00;99.90
10070;DHT22;5074;53.720;10.014;2022-08-04T17:04:00;21.90;99.90
10070;DHT22;5074;53.720;10.014;2022-08-04T17:06:32;22.00;99.90
10070;DHT22;5074;53.720;10.014;2022-08-04T17:09:09;22.10;99.90
10070;DHT22;5074;53.720;10.014;2022-08-04T17:11:40;22.10;99.90
10070;DHT22;5074;53.720;10.014;2022-08-04T17:14:10;22.20;99.90
10070;DHT22;5074;53.720;10.014;2022-08-04T17:16:39;22.20;99.90
10070;DHT22;5074;53.720;10.014;2022-08-04T17:19:09;22.30;99.90
10070;DHT22;5074;53.720;10.014;2022-08-04T17:21:53;22.20;99.90
10070;DHT22;5074;53.720;10.014;2022-08-04T17:24:30;22.10;99.90
10070;DHT22;5074;53.720;10.014;2022-08-04T17:26:59;22.20;99.90
10070;DHT22;5074;53.720;10.014;2022-08-04T17:29:30;22.50;99.90
10070;DHT22;5074;53.720;10.014;2022-08-04T17:32:11;22.60;99.90